sensor_id;sensor_type;location;lat;lon;timestamp;P1;durP1;ratioP1;P2;durP2;ratioP2
3589;SDS011;1809;48.470;9.226;2023-07-08T00:02:09;14.03;;;7.73;;
3589;SDS011;1809;48.470;9.226;2023-07-08T00:04:36;11.10;;;7.17;;
3589;SDS011;1809;48.470;9.226;2023-07-08T00:07:02;11.33;;;7.50;;
3589;SDS011;1809;48.470;9.226;2023-07-08T00:09:28;9.40;;;7.03;;
3589;SDS011;1809;48.470;9.226;2023-07-08T00:11:53;14.73;;;8.30;;
3589;SDS011;1809;48.470;9.226;2023-07-08T00:14:19;10.80;;;7.43;;
3589;SDS011;1809;48.470;9.226;2023-07-08T00:16:44;10.83;;;7.40;;
3589;SDS011;1809;48.470;9.226;2023-07-08T00:19:10;14.20;;;7.63;;
3589;SDS011;1809;48.470;9.226;2023-07-08T00:21:35;11.63;;;7.53;;
3589;SDS011;1809;48.470;9.226;2023-07-08T00:24:01;11.93;;;7.80;;
3589;SDS011;1809;48.470;9.226;2023-07-08T00:26:28;8.60;;;7.37;;
3589;SDS011;1809;48.470;9.226;2023-07-08T00:28:55;10.60;;;7.90;;
3589;SDS011;1809;48.470;9.226;2023-07-08T00:31:22;11.03;;;7.90;;
3589;SDS011;1809;48.470;9.226;2023-07-08T00:33:50;9.67;;;7.83;;
3589;SDS011;1809;48.470;9.226;2023-07-08T00:36:17;10.90;;;7.10;;
3589;SDS011;1809;48.470;9.226;2023-07-08T00:38:43;8.07;;;7.03;;
3589;SDS011;1809;48.470;9.226;2023-07-08T00:41:18;15.87;;;7.80;;
3589;SDS011;1809;48.470;9.226;2023-07-08T00:43:51;8.70;;;7.33;;
3589;SDS011;1809;48.470;9.226;2023-07-08T00:52:18;11.50;;;7.37;;
3589;SDS011;1809;48.470;9.226;2023-07-08T00:54:44;9.30;;;7.63;;
3589;SDS011;1809;48.470;9.226;2023-07-08T00:57:09;8.20;;;7.03;;
3589;SDS011;1809;48.470;9.226;2023-07-08T00:59:40;11.00;;;8.90;;
3589;SDS011;1809;48.470;9.226;2023-07-08T01:02:11;13.73;;;7.20;;
3589;SDS011;1809;48.470;9.226;2023-07-08T01:04:43;11.80;;;7.53;;
3589;SDS011;1809;48.470;9.226;2023-07-08T01:07:15;11.50;;;7.57;;
3589;SDS011;1809;48.470;9.226;2023-07-08T01:09:46;10.90;;;7.10;;
3589;SDS011;1809;48.470;9.226;2023-07-08T01:12:18;12.10;;;8.70;;
3589;SDS011;1809;48.470;9.226;2023-07-08T01:14:47;9.23;;;7.07;;
3589;SDS011;1809;48.470;9.226;2023-07-08T01:17:13;10.33;;;7.27;;
3589;SDS011;1809;48.470;9.226;2023-07-08T01:19:43;12.13;;;7.90;;
3589;SDS011;1809;48.470;9.226;2023-07-08T01:22:09;13.83;;;8.80;;
3589;SDS011;1809;48.470;9.226;2023-07-08T01:24:36;9.83;;;6.80;;
3589;SDS011;1809;48.470;9.226;2023-07-08T01:27:05;12.10;;;7.10;;
3589;SDS011;1809;48.470;9.226;2023-07-08T01:29:33;19.43;;;8.00;;
3589;SDS011;1809;48.470;9.226;2023-07-08T01:31:59;12.90;;;6.87;;
3589;SDS011;1809;48.470;9.226;2023-07-08T01:34:27;10.23;;;7.43;;
3589;SDS011;1809;48.470;9.226;2023-07-08T01:36:54;10.53;;;7.47;;
3589;SDS011;1809;48.470;9.226;2023-07-08T01:39:22;11.43;;;8.30;;
3589;SDS011;1809;48.470;9.226;2023-07-08T01:41:50;12.07;;;8.07;;
3589;SDS011;1809;48.470;9.226;2023-07-08T01:44:26;10.63;;;7.03;;
3589;SDS011;1809;48.470;9.226;2023-07-08T01:46:54;10.17;;;7.20;;
3589;SDS011;1809;48.470;9.226;2023-07-08T01:49:28;13.37;;;8.90;;
3589;SDS011;1809;48.470;9.226;2023-07-08T01:51:53;10.70;;;7.00;;
3589;SDS011;1809;48.470;9.226;2023-07-08T01:54:19;17.07;;;8.27;;
3589;SDS011;1809;48.470;9.226;2023-07-08T01:56:45;10.77;;;7.30;;
3589;SDS011;1809;48.470;9.226;2023-07-08T01:59:10;9.67;;;7.50;;
3589;SDS011;1809;48.470;9.226;2023-07-08T02:01:35;10.70;;;7.97;;
3589;SDS011;1809;48.470;9.226;2023-07-08T02:04:01;10.70;;;8.00;;
3589;SDS011;1809;48.470;9.226;2023-07-08T02:06:26;10.27;;;8.07;;
3589;SDS011;1809;48.470;9.226;2023-07-08T02:08:51;10.00;;;8.00;;
3589;SDS011;1809;48.470;9.226;2023-07-08T02:11:17;10.17;;;7.67;;
3589;SDS011;1809;48.470;9.226;2023-07-08T02:13:42;10.30;;;7.60;;
3589;SDS011;1809;48.470;9.226;2023-07-08T02:16:08;9.23;;;7.63;;
3589;SDS011;1809;48.470;9.226;2023-07-08T02:18:33;12.90;;;8.40;;
3589;SDS011;1809;48.470;9.226;2023-07-08T02:20:58;11.20;;;7.87;;
3589;SDS011;1809;48.470;9.226;2023-07-08T02:23:27;9.87;;;7.60;;
3589;SDS011;1809;48.470;9.226;2023-07-08T02:25:52;8.67;;;7.07;;
3589;SDS011;1809;48.470;9.226;2023-07-08T02:28:19;14.33;;;8.33;;
3589;SDS011;1809;48.470;9.226;2023-07-08T02:30:45;11.97;;;9.03;;
3589;SDS011;1809;48.470;9.226;2023-07-08T02:33:11;9.37;;;7.63;;
3589;SDS011;1809;48.470;9.226;2023-07-08T02:35:37;13.67;;;9.17;;
3589;SDS011;1809;48.470;9.226;2023-07-08T02:38:02;13.77;;;8.27;;
3589;SDS011;1809;48.470;9.226;2023-07-08T02:40:28;10.77;;;8.07;;
3589;SDS011;1809;48.470;9.226;2023-07-08T02:42:53;10.30;;;8.23;;
3589;SDS011;1809;48.470;9.226;2023-07-08T02:45:19;10.67;;;8.37;;
3589;SDS011;1809;48.470;9.226;2023-07-08T02:47:44;12.13;;;7.97;;
3589;SDS011;1809;48.470;9.226;2023-07-08T02:50:10;13.17;;;7.80;;
3589;SDS011;1809;48.470;9.226;2023-07-08T02:52:36;16.20;;;8.63;;
3589;SDS011;1809;48.470;9.226;2023-07-08T02:55:01;11.60;;;8.43;;
3589;SDS011;1809;48.470;9.226;2023-07-08T02:57:27;11.40;;;8.50;;
3589;SDS011;1809;48.470;9.226;2023-07-08T02:59:53;12.37;;;8.63;;
3589;SDS011;1809;48.470;9.226;2023-07-08T03:02:18;12.50;;;7.87;;
3589;SDS011;1809;48.470;9.226;2023-07-08T03:04:43;11.80;;;8.77;;
3589;SDS011;1809;48.470;9.226;2023-07-08T03:07:10;12.63;;;8.23;;
3589;SDS011;1809;48.470;9.226;2023-07-08T03:09:39;14.67;;;9.33;;
3589;SDS011;1809;48.470;9.226;2023-07-08T03:12:09;8.53;;;6.93;;
3589;SDS011;1809;48.470;9.226;2023-07-08T03:14:36;18.67;;;8.90;;
3589;SDS011;1809;48.470;9.226;2023-07-08T03:17:02;9.80;;;7.83;;
3589;SDS011;1809;48.470;9.226;2023-07-08T03:19:27;12.23;;;7.30;;
3589;SDS011;1809;48.470;9.226;2023-07-08T03:21:53;10.77;;;7.83;;
3589;SDS011;1809;48.470;9.226;2023-07-08T03:24:18;15.00;;;8.20;;
3589;SDS011;1809;48.470;9.226;2023-07-08T03:26:44;13.43;;;7.40;;
3589;SDS011;1809;48.470;9.226;2023-07-08T03:29:14;12.40;;;8.83;;
3589;SDS011;1809;48.470;9.226;2023-07-08T03:31:41;15.10;;;8.07;;
3589;SDS011;1809;48.470;9.226;2023-07-08T03:34:15;11.47;;;7.70;;
3589;SDS011;1809;48.470;9.226;2023-07-08T03:36:43;17.00;;;8.07;;
3589;SDS011;1809;48.470;9.226;2023-07-08T03:39:16;13.53;;;7.97;;
3589;SDS011;1809;48.470;9.226;2023-07-08T03:41:43;11.57;;;7.53;;
3589;SDS011;1809;48.470;9.226;2023-07-08T03:44:09;12.90;;;8.63;;
3589;SDS011;1809;48.470;9.226;2023-07-08T03:46:34;12.47;;;8.30;;
3589;SDS011;1809;48.470;9.226;2023-07-08T03:48:59;12.00;;;8.00;;
3589;SDS011;1809;48.470;9.226;2023-07-08T03:51:35;11.17;;;7.10;;
3589;SDS011;1809;48.470;9.226;2023-07-08T03:54:02;13.20;;;8.43;;
3589;SDS011;1809;48.470;9.226;2023-07-08T03:56:28;18.77;;;8.00;;
3589;SDS011;1809;48.470;9.226;2023-07-08T03:58:54;10.30;;;7.67;;
3589;SDS011;1809;48.470;9.226;2023-07-08T04:01:20;10.23;;;8.17;;
3589;SDS011;1809;48.470;9.226;2023-07-08T04:03:49;9.80;;;7.17;;
3589;SDS011;1809;48.470;9.226;2023-07-08T04:06:16;9.33;;;8.13;;
3589;SDS011;1809;48.470;9.226;2023-07-08T04:08:42;11.40;;;7.43;;
3589;SDS011;1809;48.470;9.226;2023-07-08T04:11:08;12.40;;;8.10;;
3589;SDS011;1809;48.470;9.226;2023-07-08T04:13:37;9.40;;;7.87;;
3589;SDS011;1809;48.470;9.226;2023-07-08T04:16:04;13.50;;;8.77;;
3589;SDS011;1809;48.470;9.226;2023-07-08T04:18:30;13.17;;;8.00;;
3589;SDS011;1809;48.470;9.226;2023-07-08T04:20:55;8.77;;;7.20;;
3589;SDS011;1809;48.470;9.226;2023-07-08T04:23:21;11.80;;;7.80;;
3589;SDS011;1809;48.470;9.226;2023-07-08T04:25:50;10.50;;;8.00;;
3589;SDS011;1809;48.470;9.226;2023-07-08T04:28:19;10.67;;;8.47;;
3589;SDS011;1809;48.470;9.226;2023-07-08T04:30:45;11.40;;;8.30;;
3589;SDS011;1809;48.470;9.226;2023-07-08T04:33:11;11.73;;;9.10;;
3589;SDS011;1809;48.470;9.226;2023-07-08T04:35:38;9.20;;;7.70;;
3589;SDS011;1809;48.470;9.226;2023-07-08T04:38:05;9.93;;;7.23;;
3589;SDS011;1809;48.470;9.226;2023-07-08T04:40:35;9.63;;;7.20;;
3589;SDS011;1809;48.470;9.226;2023-07-08T04:43:08;9.70;;;8.43;;
3589;SDS011;1809;48.470;9.226;2023-07-08T04:45:35;9.27;;;7.60;;
3589;SDS011;1809;48.470;9.226;2023-07-08T04:48:02;18.47;;;9.20;;
3589;SDS011;1809;48.470;9.226;2023-07-08T04:50:33;16.83;;;7.73;;
3589;SDS011;1809;48.470;9.226;2023-07-08T04:52:59;18.37;;;9.00;;
3589;SDS011;1809;48.470;9.226;2023-07-08T04:55:24;13.17;;;8.03;;
3589;SDS011;1809;48.470;9.226;2023-07-08T04:57:49;10.93;;;8.20;;
3589;SDS011;1809;48.470;9.226;2023-07-08T05:00:16;9.40;;;7.90;;
3589;SDS011;1809;48.470;9.226;2023-07-08T05:02:42;8.10;;;7.30;;
3589;SDS011;1809;48.470;9.226;2023-07-08T05:05:07;12.30;;;8.90;;
3589;SDS011;1809;48.470;9.226;2023-07-08T05:07:33;9.00;;;8.03;;
3589;SDS011;1809;48.470;9.226;2023-07-08T05:09:58;9.70;;;7.80;;
3589;SDS011;1809;48.470;9.226;2023-07-08T05:12:25;8.47;;;7.57;;
3589;SDS011;1809;48.470;9.226;2023-07-08T05:14:51;11.10;;;8.20;;
3589;SDS011;1809;48.470;9.226;2023-07-08T05:17:16;11.20;;;7.40;;
3589;SDS011;1809;48.470;9.226;2023-07-08T05:19:42;13.80;;;8.80;;
3589;SDS011;1809;48.470;9.226;2023-07-08T05:22:09;7.60;;;6.80;;
3589;SDS011;1809;48.470;9.226;2023-07-08T05:24:34;11.73;;;7.57;;
3589;SDS011;1809;48.470;9.226;2023-07-08T05:27:00;11.40;;;7.97;;
3589;SDS011;1809;48.470;9.226;2023-07-08T05:29:25;13.77;;;7.87;;
3589;SDS011;1809;48.470;9.226;2023-07-08T05:31:50;10.87;;;8.33;;
3589;SDS011;1809;48.470;9.226;2023-07-08T05:34:16;8.70;;;7.43;;
3589;SDS011;1809;48.470;9.226;2023-07-08T05:36:41;10.83;;;7.33;;
3589;SDS011;1809;48.470;9.226;2023-07-08T05:39:06;13.60;;;8.60;;
3589;SDS011;1809;48.470;9.226;2023-07-08T05:41:32;8.43;;;7.37;;
3589;SDS011;1809;48.470;9.226;2023-07-08T05:43:58;9.23;;;7.73;;
3589;SDS011;1809;48.470;9.226;2023-07-08T05:46:23;11.77;;;9.00;;
3589;SDS011;1809;48.470;9.226;2023-07-08T05:48:48;10.30;;;7.67;;
3589;SDS011;1809;48.470;9.226;2023-07-08T05:51:15;8.13;;;7.37;;
3589;SDS011;1809;48.470;9.226;2023-07-08T05:53:41;9.53;;;8.40;;
3589;SDS011;1809;48.470;9.226;2023-07-08T05:56:07;11.50;;;8.70;;
3589;SDS011;1809;48.470;9.226;2023-07-08T05:58:32;13.00;;;7.47;;
3589;SDS011;1809;48.470;9.226;2023-07-08T06:00:58;12.53;;;7.73;;
3589;SDS011;1809;48.470;9.226;2023-07-08T06:03:23;9.63;;;7.93;;
3589;SDS011;1809;48.470;9.226;2023-07-08T06:05:49;15.20;;;9.13;;
3589;SDS011;1809;48.470;9.226;2023-07-08T06:08:14;12.37;;;9.37;;
3589;SDS011;1809;48.470;9.226;2023-07-08T06:10:43;11.73;;;7.50;;
3589;SDS011;1809;48.470;9.226;2023-07-08T06:13:10;10.93;;;7.77;;
3589;SDS011;1809;48.470;9.226;2023-07-08T06:15:36;12.40;;;8.23;;
3589;SDS011;1809;48.470;9.226;2023-07-08T06:18:01;12.10;;;8.00;;
3589;SDS011;1809;48.470;9.226;2023-07-08T06:20:28;10.10;;;8.10;;
3589;SDS011;1809;48.470;9.226;2023-07-08T06:22:53;15.50;;;8.27;;
3589;SDS011;1809;48.470;9.226;2023-07-08T06:25:19;9.77;;;7.50;;
3589;SDS011;1809;48.470;9.226;2023-07-08T06:27:45;12.43;;;8.00;;
3589;SDS011;1809;48.470;9.226;2023-07-08T06:30:10;11.97;;;7.30;;
3589;SDS011;1809;48.470;9.226;2023-07-08T06:32:36;11.07;;;8.13;;
3589;SDS011;1809;48.470;9.226;2023-07-08T06:35:01;10.03;;;6.23;;
3589;SDS011;1809;48.470;9.226;2023-07-08T06:37:27;11.53;;;7.00;;
3589;SDS011;1809;48.470;9.226;2023-07-08T06:39:52;8.83;;;6.20;;
3589;SDS011;1809;48.470;9.226;2023-07-08T06:42:17;12.50;;;5.37;;
3589;SDS011;1809;48.470;9.226;2023-07-08T06:44:43;5.90;;;4.20;;
3589;SDS011;1809;48.470;9.226;2023-07-08T06:47:15;7.27;;;3.70;;
3589;SDS011;1809;48.470;9.226;2023-07-08T06:49:45;8.63;;;4.77;;
3589;SDS011;1809;48.470;9.226;2023-07-08T06:52:10;3.60;;;3.30;;
3589;SDS011;1809;48.470;9.226;2023-07-08T06:54:35;6.40;;;4.37;;
3589;SDS011;1809;48.470;9.226;2023-07-08T06:57:01;6.50;;;3.70;;
3589;SDS011;1809;48.470;9.226;2023-07-08T06:59:26;8.10;;;5.03;;
3589;SDS011;1809;48.470;9.226;2023-07-08T07:01:53;9.43;;;4.87;;
3589;SDS011;1809;48.470;9.226;2023-07-08T07:04:19;5.40;;;4.00;;
3589;SDS011;1809;48.470;9.226;2023-07-08T07:06:44;3.90;;;3.60;;
3589;SDS011;1809;48.470;9.226;2023-07-08T07:09:10;5.40;;;3.73;;
3589;SDS011;1809;48.470;9.226;2023-07-08T07:11:35;4.30;;;3.90;;
3589;SDS011;1809;48.470;9.226;2023-07-08T07:14:01;5.03;;;4.30;;
3589;SDS011;1809;48.470;9.226;2023-07-08T07:16:27;7.50;;;4.10;;
3589;SDS011;1809;48.470;9.226;2023-07-08T07:18:52;6.70;;;3.70;;
3589;SDS011;1809;48.470;9.226;2023-07-08T07:21:18;4.00;;;3.57;;
3589;SDS011;1809;48.470;9.226;2023-07-08T07:23:44;3.70;;;3.40;;
3589;SDS011;1809;48.470;9.226;2023-07-08T07:26:09;3.13;;;2.93;;
3589;SDS011;1809;48.470;9.226;2023-07-08T07:28:35;8.43;;;3.20;;
3589;SDS011;1809;48.470;9.226;2023-07-08T07:31:00;2.63;;;2.43;;
3589;SDS011;1809;48.470;9.226;2023-07-08T07:33:26;3.53;;;2.90;;
3589;SDS011;1809;48.470;9.226;2023-07-08T07:35:51;2.93;;;2.60;;
3589;SDS011;1809;48.470;9.226;2023-07-08T07:38:17;3.80;;;3.30;;
3589;SDS011;1809;48.470;9.226;2023-07-08T07:40:43;4.30;;;2.63;;
3589;SDS011;1809;48.470;9.226;2023-07-08T07:43:09;3.03;;;2.27;;
3589;SDS011;1809;48.470;9.226;2023-07-08T07:45:35;3.13;;;2.70;;
3589;SDS011;1809;48.470;9.226;2023-07-08T07:48:00;3.57;;;2.43;;
3589;SDS011;1809;48.470;9.226;2023-07-08T07:50:26;2.73;;;2.53;;
3589;SDS011;1809;48.470;9.226;2023-07-08T07:52:51;4.80;;;2.60;;
3589;SDS011;1809;48.470;9.226;2023-07-08T07:55:17;4.03;;;2.90;;
3589;SDS011;1809;48.470;9.226;2023-07-08T07:57:43;5.20;;;2.70;;
3589;SDS011;1809;48.470;9.226;2023-07-08T08:00:10;2.70;;;2.60;;
3589;SDS011;1809;48.470;9.226;2023-07-08T08:02:36;4.10;;;3.10;;
3589;SDS011;1809;48.470;9.226;2023-07-08T08:05:02;4.90;;;2.67;;
3589;SDS011;1809;48.470;9.226;2023-07-08T08:07:27;3.37;;;2.40;;
3589;SDS011;1809;48.470;9.226;2023-07-08T08:09:52;3.50;;;2.47;;
3589;SDS011;1809;48.470;9.226;2023-07-08T08:12:18;3.13;;;2.77;;
3589;SDS011;1809;48.470;9.226;2023-07-08T08:14:43;3.90;;;3.27;;
3589;SDS011;1809;48.470;9.226;2023-07-08T08:17:09;2.23;;;2.13;;
3589;SDS011;1809;48.470;9.226;2023-07-08T08:19:34;6.97;;;2.60;;
3589;SDS011;1809;48.470;9.226;2023-07-08T08:22:00;4.20;;;2.60;;
3589;SDS011;1809;48.470;9.226;2023-07-08T08:24:25;3.00;;;2.23;;
3589;SDS011;1809;48.470;9.226;2023-07-08T08:26:51;3.20;;;2.60;;
3589;SDS011;1809;48.470;9.226;2023-07-08T08:29:16;4.07;;;2.80;;
3589;SDS011;1809;48.470;9.226;2023-07-08T08:31:41;3.97;;;2.83;;
3589;SDS011;1809;48.470;9.226;2023-07-08T08:34:07;4.30;;;3.27;;
3589;SDS011;1809;48.470;9.226;2023-07-08T08:36:32;3.23;;;2.93;;
3589;SDS011;1809;48.470;9.226;2023-07-08T08:38:57;3.30;;;3.10;;
3589;SDS011;1809;48.470;9.226;2023-07-08T08:41:29;4.37;;;3.60;;
3589;SDS011;1809;48.470;9.226;2023-07-08T08:43:56;5.67;;;4.10;;
3589;SDS011;1809;48.470;9.226;2023-07-08T08:52:12;12.80;;;4.27;;
3589;SDS011;1809;48.470;9.226;2023-07-08T08:54:39;8.63;;;4.67;;
3589;SDS011;1809;48.470;9.226;2023-07-08T08:59:44;10.90;;;5.33;;
3589;SDS011;1809;48.470;9.226;2023-07-08T09:05:04;6.33;;;5.27;;
3589;SDS011;1809;48.470;9.226;2023-07-08T09:07:38;5.23;;;4.80;;
3589;SDS011;1809;48.470;9.226;2023-07-08T09:10:31;7.17;;;4.70;;
3589;SDS011;1809;48.470;9.226;2023-07-08T09:13:08;14.73;;;4.77;;
3589;SDS011;1809;48.470;9.226;2023-07-08T09:15:42;6.80;;;4.80;;
3589;SDS011;1809;48.470;9.226;2023-07-08T09:18:14;6.93;;;5.50;;
3589;SDS011;1809;48.470;9.226;2023-07-08T09:20:45;10.53;;;5.10;;
3589;SDS011;1809;48.470;9.226;2023-07-08T09:25:54;11.20;;;5.13;;
3589;SDS011;1809;48.470;9.226;2023-07-08T09:28:40;6.17;;;5.57;;
3589;SDS011;1809;48.470;9.226;2023-07-08T09:31:16;9.93;;;5.17;;
3589;SDS011;1809;48.470;9.226;2023-07-08T09:33:47;5.50;;;4.63;;
3589;SDS011;1809;48.470;9.226;2023-07-08T09:36:18;6.10;;;5.13;;
3589;SDS011;1809;48.470;9.226;2023-07-08T09:38:47;5.97;;;5.30;;
3589;SDS011;1809;48.470;9.226;2023-07-08T09:41:14;5.00;;;4.40;;
3589;SDS011;1809;48.470;9.226;2023-07-08T09:44:00;10.93;;;3.83;;
3589;SDS011;1809;48.470;9.226;2023-07-08T09:46:48;6.00;;;4.43;;
3589;SDS011;1809;48.470;9.226;2023-07-08T09:49:18;6.03;;;3.67;;
3589;SDS011;1809;48.470;9.226;2023-07-08T09:51:47;6.87;;;4.67;;
3589;SDS011;1809;48.470;9.226;2023-07-08T09:54:15;5.93;;;4.23;;
3589;SDS011;1809;48.470;9.226;2023-07-08T09:56:41;5.40;;;3.53;;
3589;SDS011;1809;48.470;9.226;2023-07-08T09:59:11;3.83;;;3.50;;
3589;SDS011;1809;48.470;9.226;2023-07-08T10:01:39;3.50;;;2.77;;
3589;SDS011;1809;48.470;9.226;2023-07-08T10:04:06;11.03;;;3.93;;
3589;SDS011;1809;48.470;9.226;2023-07-08T10:06:32;4.17;;;3.90;;
3589;SDS011;1809;48.470;9.226;2023-07-08T10:09:07;5.33;;;3.60;;
3589;SDS011;1809;48.470;9.226;2023-07-08T10:11:39;7.63;;;3.50;;
3589;SDS011;1809;48.470;9.226;2023-07-08T10:25:03;6.33;;;4.53;;
3589;SDS011;1809;48.470;9.226;2023-07-08T10:36:48;4.13;;;3.73;;
3589;SDS011;1809;48.470;9.226;2023-07-08T10:47:42;5.67;;;3.47;;
3589;SDS011;1809;48.470;9.226;2023-07-08T10:52:54;10.93;;;4.50;;
3589;SDS011;1809;48.470;9.226;2023-07-08T11:01:07;3.53;;;3.20;;
3589;SDS011;1809;48.470;9.226;2023-07-08T11:09:15;6.43;;;3.70;;
3589;SDS011;1809;48.470;9.226;2023-07-08T11:12:01;4.83;;;3.60;;
3589;SDS011;1809;48.470;9.226;2023-07-08T11:14:52;6.87;;;3.23;;
3589;SDS011;1809;48.470;9.226;2023-07-08T11:17:40;4.30;;;3.67;;
3589;SDS011;1809;48.470;9.226;2023-07-08T11:23:03;8.20;;;3.60;;
3589;SDS011;1809;48.470;9.226;2023-07-08T11:25:35;3.50;;;3.23;;
3589;SDS011;1809;48.470;9.226;2023-07-08T11:28:03;3.37;;;3.17;;
3589;SDS011;1809;48.470;9.226;2023-07-08T11:30:32;3.70;;;3.40;;
3589;SDS011;1809;48.470;9.226;2023-07-08T11:33:08;3.70;;;3.30;;
3589;SDS011;1809;48.470;9.226;2023-07-08T11:38:13;8.43;;;4.20;;
3589;SDS011;1809;48.470;9.226;2023-07-08T11:43:15;3.20;;;3.00;;
3589;SDS011;1809;48.470;9.226;2023-07-08T11:45:41;4.50;;;3.20;;
3589;SDS011;1809;48.470;9.226;2023-07-08T11:48:13;4.97;;;3.67;;
3589;SDS011;1809;48.470;9.226;2023-07-08T11:50:42;3.43;;;3.20;;
3589;SDS011;1809;48.470;9.226;2023-07-08T11:53:13;3.50;;;3.20;;
3589;SDS011;1809;48.470;9.226;2023-07-08T11:55:56;5.80;;;3.57;;
3589;SDS011;1809;48.470;9.226;2023-07-08T12:03:53;3.80;;;3.50;;
3589;SDS011;1809;48.470;9.226;2023-07-08T12:08:56;3.70;;;3.40;;
3589;SDS011;1809;48.470;9.226;2023-07-08T12:11:33;3.63;;;2.80;;
3589;SDS011;1809;48.470;9.226;2023-07-08T12:14:00;5.87;;;3.20;;
3589;SDS011;1809;48.470;9.226;2023-07-08T12:16:28;3.97;;;3.40;;
3589;SDS011;1809;48.470;9.226;2023-07-08T12:18:55;5.10;;;4.17;;
3589;SDS011;1809;48.470;9.226;2023-07-08T12:21:24;5.40;;;3.97;;
3589;SDS011;1809;48.470;9.226;2023-07-08T12:23:51;5.83;;;4.47;;
3589;SDS011;1809;48.470;9.226;2023-07-08T12:26:17;3.53;;;2.80;;
3589;SDS011;1809;48.470;9.226;2023-07-08T12:28:42;4.47;;;3.30;;
3589;SDS011;1809;48.470;9.226;2023-07-08T12:31:15;3.50;;;3.30;;
3589;SDS011;1809;48.470;9.226;2023-07-08T12:33:43;10.93;;;3.77;;
3589;SDS011;1809;48.470;9.226;2023-07-08T12:36:10;4.20;;;3.30;;
3589;SDS011;1809;48.470;9.226;2023-07-08T12:38:42;3.20;;;2.70;;
3589;SDS011;1809;48.470;9.226;2023-07-08T12:41:20;3.47;;;3.27;;
3589;SDS011;1809;48.470;9.226;2023-07-08T12:43:48;3.90;;;2.70;;
3589;SDS011;1809;48.470;9.226;2023-07-08T12:46:14;5.03;;;3.20;;
3589;SDS011;1809;48.470;9.226;2023-07-08T12:48:42;3.67;;;3.20;;
3589;SDS011;1809;48.470;9.226;2023-07-08T12:51:15;3.80;;;3.10;;
3589;SDS011;1809;48.470;9.226;2023-07-08T12:53:48;4.73;;;4.33;;
3589;SDS011;1809;48.470;9.226;2023-07-08T12:56:15;3.67;;;2.97;;
3589;SDS011;1809;48.470;9.226;2023-07-08T12:58:44;3.50;;;3.20;;
3589;SDS011;1809;48.470;9.226;2023-07-08T13:01:18;3.00;;;2.80;;
3589;SDS011;1809;48.470;9.226;2023-07-08T13:03:47;3.90;;;2.93;;
3589;SDS011;1809;48.470;9.226;2023-07-08T13:06:16;2.10;;;2.00;;
3589;SDS011;1809;48.470;9.226;2023-07-08T13:08:45;2.13;;;1.93;;
3589;SDS011;1809;48.470;9.226;2023-07-08T13:11:11;2.30;;;2.20;;
3589;SDS011;1809;48.470;9.226;2023-07-08T13:13:42;2.50;;;2.30;;
3589;SDS011;1809;48.470;9.226;2023-07-08T13:16:13;2.57;;;2.33;;
3589;SDS011;1809;48.470;9.226;2023-07-08T13:18:40;2.40;;;2.30;;
3589;SDS011;1809;48.470;9.226;2023-07-08T13:21:09;2.33;;;2.17;;
3589;SDS011;1809;48.470;9.226;2023-07-08T13:23:37;3.00;;;2.47;;
3589;SDS011;1809;48.470;9.226;2023-07-08T13:28:38;3.00;;;2.80;;
3589;SDS011;1809;48.470;9.226;2023-07-08T13:31:14;3.20;;;2.87;;
3589;SDS011;1809;48.470;9.226;2023-07-08T13:33:45;2.53;;;2.00;;
3589;SDS011;1809;48.470;9.226;2023-07-08T13:36:13;2.73;;;2.17;;
3589;SDS011;1809;48.470;9.226;2023-07-08T13:38:41;3.17;;;2.17;;
3589;SDS011;1809;48.470;9.226;2023-07-08T13:41:07;2.80;;;2.60;;
3589;SDS011;1809;48.470;9.226;2023-07-08T13:43:37;2.87;;;2.60;;
3589;SDS011;1809;48.470;9.226;2023-07-08T13:46:06;3.57;;;2.80;;
3589;SDS011;1809;48.470;9.226;2023-07-08T13:48:53;5.43;;;2.50;;
3589;SDS011;1809;48.470;9.226;2023-07-08T13:51:19;4.00;;;3.00;;
3589;SDS011;1809;48.470;9.226;2023-07-08T13:53:57;3.00;;;2.80;;
3589;SDS011;1809;48.470;9.226;2023-07-08T13:56:27;2.87;;;2.70;;
3589;SDS011;1809;48.470;9.226;2023-07-08T13:59:01;4.13;;;2.33;;
3589;SDS011;1809;48.470;9.226;2023-07-08T14:01:35;3.87;;;3.57;;
3589;SDS011;1809;48.470;9.226;2023-07-08T14:04:03;3.03;;;2.83;;
3589;SDS011;1809;48.470;9.226;2023-07-08T14:06:31;2.33;;;2.23;;
3589;SDS011;1809;48.470;9.226;2023-07-08T14:09:15;2.70;;;2.60;;
3589;SDS011;1809;48.470;9.226;2023-07-08T14:11:46;3.27;;;2.70;;
3589;SDS011;1809;48.470;9.226;2023-07-08T14:14:13;3.67;;;2.77;;
3589;SDS011;1809;48.470;9.226;2023-07-08T14:16:43;3.73;;;2.50;;
3589;SDS011;1809;48.470;9.226;2023-07-08T14:19:30;3.47;;;3.17;;
3589;SDS011;1809;48.470;9.226;2023-07-08T14:22:00;3.00;;;2.80;;
3589;SDS011;1809;48.470;9.226;2023-07-08T14:24:27;5.60;;;3.03;;
3589;SDS011;1809;48.470;9.226;2023-07-08T14:26:53;3.67;;;2.60;;
3589;SDS011;1809;48.470;9.226;2023-07-08T14:29:18;3.80;;;2.90;;
3589;SDS011;1809;48.470;9.226;2023-07-08T14:31:44;6.47;;;2.50;;
3589;SDS011;1809;48.470;9.226;2023-07-08T14:34:22;5.37;;;3.10;;
3589;SDS011;1809;48.470;9.226;2023-07-08T14:36:49;2.93;;;2.80;;
3589;SDS011;1809;48.470;9.226;2023-07-08T14:39:15;3.00;;;2.70;;
3589;SDS011;1809;48.470;9.226;2023-07-08T14:41:42;4.07;;;3.07;;
3589;SDS011;1809;48.470;9.226;2023-07-08T14:44:20;3.17;;;2.50;;
3589;SDS011;1809;48.470;9.226;2023-07-08T14:46:56;2.57;;;2.37;;
3589;SDS011;1809;48.470;9.226;2023-07-08T14:49:23;5.53;;;2.83;;
3589;SDS011;1809;48.470;9.226;2023-07-08T14:51:49;8.60;;;3.33;;
3589;SDS011;1809;48.470;9.226;2023-07-08T14:54:16;3.87;;;3.67;;
3589;SDS011;1809;48.470;9.226;2023-07-08T14:56:43;5.97;;;3.17;;
3589;SDS011;1809;48.470;9.226;2023-07-08T14:59:12;3.03;;;2.83;;
3589;SDS011;1809;48.470;9.226;2023-07-08T15:01:43;4.73;;;3.20;;
3589;SDS011;1809;48.470;9.226;2023-07-08T15:04:13;3.70;;;3.40;;
3589;SDS011;1809;48.470;9.226;2023-07-08T15:06:40;3.63;;;3.10;;
3589;SDS011;1809;48.470;9.226;2023-07-08T15:09:06;3.23;;;2.70;;
3589;SDS011;1809;48.470;9.226;2023-07-08T15:11:32;2.90;;;2.70;;
3589;SDS011;1809;48.470;9.226;2023-07-08T15:13:59;6.40;;;3.73;;
3589;SDS011;1809;48.470;9.226;2023-07-08T15:16:25;4.50;;;2.23;;
3589;SDS011;1809;48.470;9.226;2023-07-08T15:18:50;3.07;;;2.80;;
3589;SDS011;1809;48.470;9.226;2023-07-08T15:21:16;2.83;;;2.63;;
3589;SDS011;1809;48.470;9.226;2023-07-08T15:23:42;4.70;;;2.80;;
3589;SDS011;1809;48.470;9.226;2023-07-08T15:26:11;2.73;;;2.53;;
3589;SDS011;1809;48.470;9.226;2023-07-08T15:31:13;6.67;;;3.00;;
3589;SDS011;1809;48.470;9.226;2023-07-08T15:33:43;4.00;;;2.50;;
3589;SDS011;1809;48.470;9.226;2023-07-08T15:36:10;4.70;;;3.90;;
3589;SDS011;1809;48.470;9.226;2023-07-08T15:38:36;3.00;;;2.80;;
3589;SDS011;1809;48.470;9.226;2023-07-08T15:41:02;8.30;;;2.80;;
3589;SDS011;1809;48.470;9.226;2023-07-08T15:43:29;3.70;;;3.33;;
3589;SDS011;1809;48.470;9.226;2023-07-08T15:45:55;4.10;;;2.80;;
3589;SDS011;1809;48.470;9.226;2023-07-08T15:48:20;2.53;;;2.33;;
3589;SDS011;1809;48.470;9.226;2023-07-08T15:50:46;2.60;;;2.40;;
3589;SDS011;1809;48.470;9.226;2023-07-08T15:53:13;3.80;;;2.50;;
3589;SDS011;1809;48.470;9.226;2023-07-08T15:55:41;2.93;;;2.70;;
3589;SDS011;1809;48.470;9.226;2023-07-08T16:00:53;3.20;;;2.97;;
3589;SDS011;1809;48.470;9.226;2023-07-08T16:03:23;2.97;;;2.70;;
3589;SDS011;1809;48.470;9.226;2023-07-08T16:05:54;3.33;;;2.93;;
3589;SDS011;1809;48.470;9.226;2023-07-08T16:08:20;4.30;;;3.27;;
3589;SDS011;1809;48.470;9.226;2023-07-08T16:10:57;3.37;;;3.10;;
3589;SDS011;1809;48.470;9.226;2023-07-08T16:13:27;2.60;;;2.50;;
3589;SDS011;1809;48.470;9.226;2023-07-08T16:15:55;2.83;;;2.50;;
3589;SDS011;1809;48.470;9.226;2023-07-08T16:18:21;3.60;;;3.27;;
3589;SDS011;1809;48.470;9.226;2023-07-08T16:20:46;3.60;;;2.67;;
3589;SDS011;1809;48.470;9.226;2023-07-08T16:23:12;3.20;;;2.67;;
3589;SDS011;1809;48.470;9.226;2023-07-08T16:25:38;3.30;;;3.10;;
3589;SDS011;1809;48.470;9.226;2023-07-08T16:28:08;4.67;;;3.70;;
3589;SDS011;1809;48.470;9.226;2023-07-08T16:31:07;3.27;;;3.07;;
3589;SDS011;1809;48.470;9.226;2023-07-08T16:33:37;3.43;;;2.80;;
3589;SDS011;1809;48.470;9.226;2023-07-08T16:36:03;3.37;;;2.60;;
3589;SDS011;1809;48.470;9.226;2023-07-08T16:38:29;12.10;;;2.53;;
3589;SDS011;1809;48.470;9.226;2023-07-08T16:40:54;2.97;;;2.80;;
3589;SDS011;1809;48.470;9.226;2023-07-08T16:43:21;3.73;;;2.73;;